createdAt,value
2019-01-24T05:00:57.903Z,56.50
2019-01-24T05:01:57.770Z,76.30
2019-01-24T05:03:50.418Z,80.10
2019-01-24T05:04:50.299Z,76.90
2019-01-24T05:06:42.991Z,80.40
2019-01-24T05:07:42.862Z,78.40
2019-01-24T05:09:35.505Z,82.00
2019-01-24T05:10:35.389Z,79.30
2019-01-24T05:12:28.050Z,78.90
2019-01-24T05:13:27.917Z,80.80
2019-01-24T05:15:20.576Z,78.30
2019-01-24T05:16:20.452Z,80.50
2019-01-24T05:18:13.124Z,81.70
2019-01-24T05:19:12.984Z,80.90
2019-01-24T05:21:05.639Z,79.20
2019-01-24T05:22:05.518Z,77.70
2019-01-24T05:23:58.190Z,79.00
2019-01-24T05:24:58.090Z,78.90
2019-01-24T05:26:50.728Z,78.70
2019-01-24T05:27:50.588Z,78.80
2019-01-24T05:29:43.234Z,81.40
2019-01-24T05:30:43.113Z,75.10
2019-01-24T05:32:35.782Z,77.30
2019-01-24T05:33:35.646Z,82.60
2019-01-24T05:35:34.477Z,81.10
2019-01-24T05:36:28.178Z,83.70
2019-01-24T05:38:20.843Z,79.10
2019-01-24T05:39:20.720Z,80.50
2019-01-24T05:41:13.368Z,83.20
2019-01-24T05:42:13.341Z,78.20
2019-01-24T05:44:05.914Z,79.70
2019-01-24T05:45:05.779Z,83.20
2019-01-24T05:46:58.462Z,83.10
2019-01-24T05:47:58.315Z,83.00
2019-01-24T05:49:50.967Z,81.00
2019-01-24T05:50:50.854Z,80.30
2019-01-24T05:52:43.524Z,79.60
2019-01-24T05:53:43.385Z,81.20
2019-01-24T05:55:36.046Z,80.70
2019-01-24T05:56:35.931Z,79.10
2019-01-24T05:58:28.604Z,84.80
2019-01-24T05:59:28.459Z,78.10
2019-01-24T06:01:21.112Z,79.90
2019-01-24T06:02:20.993Z,80.20
2019-01-24T06:04:13.656Z,78.40
2019-01-24T06:05:13.529Z,80.30
2019-01-24T06:07:06.183Z,76.50
2019-01-24T06:08:06.068Z,80.70
2019-01-24T06:09:58.735Z,78.00
2019-01-24T06:10:58.609Z,76.70
2019-01-24T06:12:51.293Z,78.20
2019-01-24T06:13:51.155Z,84.80
2019-01-24T06:15:43.800Z,78.00
2019-01-24T06:16:43.683Z,79.60
2019-01-24T06:18:36.419Z,80.10
2019-01-24T06:19:36.319Z,83.60
2019-01-24T06:21:28.921Z,80.50
2019-01-24T06:22:28.812Z,78.10
2019-01-24T06:24:21.496Z,78.90
2019-01-24T06:25:21.371Z,80.70
2019-01-24T06:27:14.012Z,74.70
2019-01-24T06:28:13.897Z,78.80
2019-01-24T06:30:06.559Z,77.00
2019-01-24T06:31:06.429Z,78.20
2019-01-24T06:32:59.098Z,81.00
2019-01-24T06:33:58.965Z,77.10
2019-01-24T06:35:51.619Z,80.70
2019-01-24T06:36:51.495Z,80.50
2019-01-24T06:38:44.946Z,77.40
2019-01-24T06:39:44.028Z,79.90
2019-01-24T06:41:36.676Z,74.50
2019-01-24T06:42:36.561Z,81.80
2019-01-24T06:44:29.229Z,82.50
2019-01-24T06:45:29.095Z,78.30
2019-01-24T06:47:21.747Z,77.40
2019-01-24T06:48:21.622Z,77.50
2019-01-24T06:50:14.290Z,75.00
2019-01-24T06:51:14.157Z,72.10
2019-01-24T06:53:06.824Z,72.50
2019-01-24T06:54:06.693Z,82.10
2019-01-24T06:55:59.342Z,78.60
2019-01-24T06:56:59.232Z,73.40
2019-01-24T06:58:51.898Z,80.50
2019-01-24T06:59:51.763Z,78.60
2019-01-24T07:01:44.417Z,84.60
2019-01-24T07:02:44.295Z,82.40
2019-01-24T07:04:36.967Z,81.50
2019-01-24T07:05:36.830Z,78.60
2019-01-24T07:07:29.485Z,74.60
2019-01-24T07:08:29.366Z,81.00
2019-01-24T07:10:22.040Z,75.80
2019-01-24T07:11:21.900Z,78.30
2019-01-24T07:13:14.553Z,76.80
2019-01-24T07:14:14.436Z,75.70
2019-01-24T07:16:07.114Z,79.40
2019-01-24T07:17:06.970Z,75.50
2019-01-24T07:18:59.646Z,77.50
2019-01-24T07:19:59.506Z,75.70
2019-01-24T07:21:52.156Z,77.80
2019-01-24T07:22:52.040Z,80.60
2019-01-24T07:24:44.707Z,73.20
2019-01-24T07:25:44.574Z,76.50
2019-01-24T07:27:37.224Z,72.70
2019-01-24T07:28:37.101Z,73.40
2019-01-24T07:30:29.810Z,73.90
2019-01-24T07:31:29.644Z,74.00
2019-01-24T07:33:22.291Z,74.70
2019-01-24T07:34:22.177Z,70.40
2019-01-24T07:36:14.842Z,74.70
2019-01-24T07:37:14.708Z,75.30
2019-01-24T07:39:07.467Z,75.30
2019-01-24T07:40:07.264Z,72.90
2019-01-24T07:41:59.930Z,73.30
2019-01-24T07:42:59.813Z,74.40
2019-01-24T07:44:52.536Z,81.00
2019-01-24T07:45:52.382Z,76.80
2019-01-24T07:47:45.913Z,74.70
2019-01-24T07:48:45.788Z,78.10
2019-01-24T07:50:38.466Z,78.90
2019-01-24T07:51:38.332Z,78.20
2019-01-24T07:53:31.078Z,76.90
2019-01-24T07:54:30.913Z,78.20
2019-01-24T07:56:23.583Z,76.20
2019-01-24T07:57:23.417Z,79.00
2019-01-24T07:59:16.082Z,77.20
2019-01-24T08:00:15.965Z,74.10
2019-01-24T08:02:08.681Z,76.00
2019-01-24T08:03:08.565Z,76.50
2019-01-24T08:05:01.268Z,76.30
2019-01-24T08:06:01.134Z,76.80
2019-01-24T08:07:53.845Z,75.40
2019-01-24T08:08:53.659Z,77.10
2019-01-24T08:10:46.344Z,73.00
2019-01-24T08:11:46.223Z,78.90
2019-01-24T08:13:38.861Z,74.90
2019-01-24T08:14:38.731Z,75.70
2019-01-24T08:16:31.415Z,81.10
2019-01-24T08:17:31.267Z,76.00
2019-01-24T08:19:23.919Z,77.20
2019-01-24T08:20:23.805Z,72.90
2019-01-24T08:22:16.478Z,72.40
2019-01-24T08:23:16.340Z,73.70
2019-01-24T08:25:08.996Z,75.10
2019-01-24T08:26:08.877Z,73.10
2019-01-24T08:28:01.546Z,72.80
2019-01-24T08:29:01.415Z,81.30
2019-01-24T08:30:54.091Z,74.10
2019-01-24T08:31:53.946Z,79.50
2019-01-24T08:33:46.603Z,76.60
2019-01-24T08:34:46.487Z,78.40
2019-01-24T08:36:39.156Z,74.20
2019-01-24T08:37:39.015Z,77.00
2019-01-24T08:39:31.668Z,75.30
2019-01-24T08:40:31.555Z,79.30
2019-01-24T08:42:24.232Z,77.00
2019-01-24T08:43:24.088Z,77.30
2019-01-24T08:45:16.736Z,74.50
2019-01-24T08:46:16.623Z,77.40
2019-01-24T08:48:09.285Z,74.60
2019-01-24T08:49:09.153Z,75.90
2019-01-24T08:51:01.822Z,75.00
2019-01-24T08:52:01.687Z,71.90
2019-01-24T08:53:54.352Z,80.70
2019-01-24T08:54:54.225Z,76.70
2019-01-24T08:56:46.892Z,76.20
2019-01-24T08:57:46.760Z,72.50
2019-01-24T08:59:40.057Z,77.60
2019-01-24T09:00:39.291Z,74.00
2019-01-24T09:02:31.959Z,78.20
2019-01-24T09:03:31.827Z,76.50
2019-01-24T09:05:24.486Z,78.70
2019-01-24T09:06:24.384Z,77.70
2019-01-24T09:08:17.032Z,76.50
2019-01-24T09:09:16.900Z,81.20
2019-01-24T09:11:09.559Z,76.10
2019-01-24T09:12:09.436Z,83.50
2019-01-24T09:14:02.104Z,78.60
2019-01-24T09:15:01.967Z,77.00
2019-01-24T09:16:54.697Z,78.10
2019-01-24T09:17:54.532Z,79.00
2019-01-24T09:19:47.151Z,78.60
2019-01-24T09:20:47.037Z,78.60
2019-01-24T09:22:39.705Z,79.20
2019-01-24T09:23:39.567Z,77.80
2019-01-24T09:25:32.225Z,86.50
2019-01-24T09:26:32.106Z,82.30
2019-01-24T09:28:24.783Z,79.80
2019-01-24T09:29:24.637Z,78.90
2019-01-24T09:31:17.294Z,76.40
2019-01-24T09:32:17.177Z,81.40
2019-01-24T09:34:09.842Z,77.70
2019-01-24T09:35:09.712Z,82.00
2019-01-24T09:37:02.380Z,81.70
2019-01-24T09:38:02.244Z,76.80
2019-01-24T09:39:54.900Z,79.00
2019-01-24T09:40:54.777Z,75.50
2019-01-24T09:42:47.446Z,77.20
2019-01-24T09:43:47.315Z,80.90
2019-01-24T09:45:39.962Z,81.60
2019-01-24T09:46:39.863Z,77.30
2019-01-24T09:48:32.532Z,78.20
2019-01-24T09:49:32.403Z,80.20
2019-01-24T09:51:25.063Z,84.10
2019-01-24T09:52:24.947Z,81.10
2019-01-24T09:54:17.583Z,77.30
2019-01-24T09:55:17.521Z,83.90
2019-01-24T09:57:10.191Z,77.30
2019-01-24T09:58:10.240Z,79.00
2019-01-24T10:00:02.656Z,86.00
2019-01-24T10:01:02.523Z,79.30
2019-01-24T10:02:55.201Z,81.40
2019-01-24T10:03:55.068Z,82.10
2019-01-24T10:05:47.729Z,80.60
2019-01-24T10:06:47.607Z,74.20
2019-01-24T10:08:40.325Z,78.60
2019-01-24T10:09:40.153Z,76.10
2019-01-24T10:11:32.826Z,77.10
2019-01-24T10:12:32.736Z,79.90
2019-01-24T10:14:25.364Z,76.70
2019-01-24T10:15:25.235Z,77.50
2019-01-24T10:17:17.889Z,82.40
2019-01-24T10:18:21.615Z,76.50
2019-01-24T10:20:10.434Z,77.50
2019-01-24T10:21:10.309Z,78.70
2019-01-24T10:23:02.972Z,85.00
2019-01-24T10:24:02.848Z,78.70
2019-01-24T10:25:55.497Z,85.00
2019-01-24T10:26:55.385Z,83.40
2019-01-24T10:28:48.049Z,86.70
2019-01-24T10:29:47.935Z,81.80
2019-01-24T10:31:40.588Z,81.20
2019-01-24T10:32:40.461Z,83.90
2019-01-24T10:34:33.131Z,79.90
2019-01-24T10:35:33.003Z,81.60
2019-01-24T10:37:25.647Z,80.90
2019-01-24T10:38:25.531Z,83.60
2019-01-24T10:40:18.208Z,77.60
2019-01-24T10:41:18.069Z,78.30
2019-01-24T10:43:10.726Z,78.80
2019-01-24T10:44:10.605Z,79.50
2019-01-24T10:46:03.277Z,84.10
2019-01-24T10:47:03.146Z,81.50
2019-01-24T10:48:55.812Z,80.70
2019-01-24T10:49:55.685Z,83.00
2019-01-24T10:51:48.342Z,81.40
2019-01-24T10:52:48.230Z,77.70
2019-01-24T10:54:40.903Z,78.70
2019-01-24T10:55:40.772Z,79.10
2019-01-24T10:57:33.434Z,77.10
2019-01-24T10:58:33.313Z,85.70
2019-01-24T11:00:25.993Z,79.90
2019-01-24T11:01:25.856Z,81.60
2019-01-24T11:03:18.509Z,82.20
2019-01-24T11:04:18.393Z,81.50
2019-01-24T11:06:11.066Z,81.30
2019-01-24T11:07:10.936Z,81.60
2019-01-24T11:09:03.607Z,80.70
2019-01-24T11:10:03.473Z,79.50
2019-01-24T11:11:56.132Z,80.70
2019-01-24T11:12:56.012Z,81.80
2019-01-24T11:14:48.686Z,80.80
2019-01-24T11:15:48.545Z,81.20
2019-01-24T11:17:41.203Z,80.80
2019-01-24T11:18:41.082Z,79.70
2019-01-24T11:20:34.193Z,87.10
2019-01-24T11:21:34.353Z,81.60
2019-01-24T11:23:26.355Z,80.80
2019-01-24T11:24:26.244Z,82.20
2019-01-24T11:26:18.933Z,79.20
2019-01-24T11:27:18.878Z,85.50
2019-01-24T11:29:11.523Z,82.70
2019-01-24T11:30:11.375Z,87.60
2019-01-24T11:32:04.085Z,83.70
2019-01-24T11:33:03.957Z,83.00
2019-01-24T11:34:56.689Z,84.90
2019-01-24T11:35:56.496Z,80.10
2019-01-24T11:37:49.209Z,85.80
2019-01-24T11:38:49.094Z,80.20
2019-01-24T11:40:41.763Z,85.00
2019-01-24T11:41:41.615Z,83.80
2019-01-24T11:43:34.266Z,81.60
2019-01-24T11:44:34.180Z,78.30
2019-01-24T11:46:26.916Z,79.10
2019-01-24T11:47:26.738Z,81.50
2019-01-24T11:49:19.430Z,77.70
2019-01-24T11:50:19.344Z,82.60
2019-01-24T11:52:12.002Z,81.50
2019-01-24T11:53:11.913Z,78.50
2019-01-24T11:55:04.623Z,79.60
2019-01-24T11:56:04.428Z,78.80
2019-01-24T11:57:57.194Z,79.30
2019-01-24T11:58:57.013Z,77.70
2019-01-24T12:00:49.818Z,76.20
2019-01-24T12:01:49.538Z,77.00
2019-01-24T12:03:42.216Z,78.40
2019-01-24T12:04:42.062Z,80.90
2019-01-24T12:06:34.752Z,74.40
2019-01-24T12:07:34.620Z,81.60
2019-01-24T12:09:27.340Z,79.90
2019-01-24T12:10:27.185Z,81.30
2019-01-24T12:12:19.860Z,75.90
2019-01-24T12:13:19.725Z,75.60
2019-01-24T12:15:12.403Z,75.80
2019-01-24T12:16:12.268Z,79.90
2019-01-24T12:18:04.954Z,76.70
2019-01-24T12:19:04.810Z,80.50
2019-01-24T12:20:57.507Z,76.30
2019-01-24T12:21:57.340Z,77.70
2019-01-24T12:23:49.996Z,76.10
2019-01-24T12:24:49.882Z,77.50
2019-01-24T12:26:42.548Z,78.70
2019-01-24T12:27:42.420Z,74.40
2019-01-24T12:29:35.079Z,78.10
2019-01-24T12:30:34.959Z,75.70
2019-01-24T12:32:27.628Z,74.20
2019-01-24T12:33:27.503Z,75.10
2019-01-24T12:35:20.155Z,77.20
2019-01-24T12:36:20.042Z,72.40
2019-01-24T12:38:12.715Z,78.00
2019-01-24T12:39:12.582Z,75.90
2019-01-24T12:41:05.252Z,75.90
2019-01-24T12:42:05.111Z,75.00
2019-01-24T12:43:57.778Z,73.60
2019-01-24T12:44:57.659Z,72.70
2019-01-24T12:46:50.323Z,77.60
2019-01-24T12:47:50.190Z,72.70
2019-01-24T12:49:42.849Z,78.50
2019-01-24T12:50:42.734Z,76.80
2019-01-24T12:52:35.408Z,79.70
2019-01-24T12:53:35.286Z,75.30
2019-01-24T12:55:27.944Z,76.60
2019-01-24T12:56:27.828Z,76.60
2019-01-24T12:58:20.571Z,79.10
2019-01-24T12:59:20.362Z,78.60
2019-01-24T13:01:13.040Z,73.40
2019-01-24T13:02:12.904Z,77.70
2019-01-24T13:04:05.609Z,77.10
2019-01-24T13:05:05.489Z,78.20
2019-01-24T13:06:58.110Z,75.10
2019-01-24T13:07:57.977Z,79.70
2019-01-24T13:09:50.681Z,81.50
2019-01-24T13:10:50.547Z,75.60
2019-01-24T13:12:43.229Z,75.50
2019-01-24T13:13:43.129Z,75.90
2019-01-24T13:15:35.829Z,74.00
2019-01-24T13:16:35.727Z,73.20
2019-01-24T13:18:28.438Z,75.80
2019-01-24T13:19:28.312Z,73.10
2019-01-24T13:21:20.926Z,70.40
2019-01-24T13:22:20.795Z,74.00
2019-01-24T13:24:13.479Z,73.50
2019-01-24T13:25:13.324Z,73.40
2019-01-24T13:27:06.022Z,70.20
2019-01-24T13:28:05.873Z,72.00
2019-01-24T13:29:58.547Z,70.40
2019-01-24T13:30:58.415Z,75.90
2019-01-24T13:32:51.116Z,69.10
2019-01-24T13:33:51.012Z,68.60
2019-01-24T13:35:44.493Z,69.80
2019-01-24T13:36:44.394Z,70.90
2019-01-24T13:38:37.076Z,71.60
2019-01-24T13:39:36.933Z,73.20
2019-01-24T13:41:29.635Z,77.40
2019-01-24T13:42:29.510Z,75.30
2019-01-24T13:44:22.193Z,74.40
2019-01-24T13:45:22.003Z,80.00
2019-01-24T13:47:14.747Z,75.10
2019-01-24T13:48:14.631Z,77.60
2019-01-24T13:50:07.386Z,76.20
2019-01-24T13:51:07.214Z,75.10
2019-01-24T13:52:59.948Z,71.70
2019-01-24T13:53:59.797Z,75.30
2019-01-24T13:55:52.486Z,70.30
2019-01-24T13:56:52.347Z,75.00
2019-01-24T13:58:45.050Z,74.70
2019-01-24T13:59:44.885Z,75.90
2019-01-24T14:01:37.580Z,72.20
2019-01-24T14:02:37.434Z,72.60
2019-01-24T14:04:30.123Z,73.00
2019-01-24T14:05:29.970Z,74.60
2019-01-24T14:07:22.686Z,70.20
2019-01-24T14:08:22.508Z,75.40
2019-01-24T14:10:15.192Z,77.80
2019-01-24T14:11:18.269Z,74.10
2019-01-24T14:13:07.717Z,73.50
2019-01-24T14:14:07.598Z,72.70
2019-01-24T14:16:00.258Z,75.00
2019-01-24T14:17:00.143Z,75.80
2019-01-24T14:18:52.835Z,75.40
2019-01-24T14:19:52.683Z,71.00
2019-01-24T14:21:45.378Z,74.20
2019-01-24T14:22:45.236Z,73.10
2019-01-24T14:24:37.894Z,71.70
2019-01-24T14:25:37.796Z,73.10
2019-01-24T14:27:30.429Z,69.50
2019-01-24T14:28:30.286Z,73.70
2019-01-24T14:30:22.997Z,77.40
2019-01-24T14:31:22.854Z,73.10
2019-01-24T14:33:15.627Z,74.30
2019-01-24T14:34:15.454Z,71.80
2019-01-24T14:36:08.195Z,71.00
2019-01-24T14:37:07.991Z,70.90
2019-01-24T14:39:00.754Z,70.20
2019-01-24T14:40:00.595Z,68.20
2019-01-24T14:41:53.318Z,73.00
2019-01-24T14:42:53.120Z,73.10
2019-01-24T14:44:45.917Z,72.80
2019-01-24T14:45:45.708Z,71.20
2019-01-24T14:47:38.438Z,73.80
2019-01-24T14:48:38.280Z,70.60
2019-01-24T14:50:30.952Z,74.60
2019-01-24T14:51:30.811Z,68.70
2019-01-24T14:53:23.471Z,70.20
2019-01-24T14:54:23.349Z,73.50
2019-01-24T14:56:16.027Z,71.70
2019-01-24T14:57:15.892Z,72.10
2019-01-24T14:59:08.564Z,77.20
2019-01-24T15:00:08.431Z,73.80
2019-01-24T15:02:01.078Z,72.30
2019-01-24T15:03:00.965Z,71.20
2019-01-24T15:04:53.673Z,74.30
2019-01-24T15:05:53.511Z,76.20
2019-01-24T15:07:47.463Z,69.40
2019-01-24T15:08:46.037Z,71.70
2019-01-24T15:10:38.715Z,73.00
2019-01-24T15:11:38.580Z,71.70
2019-01-24T15:13:31.236Z,72.70
2019-01-24T15:14:31.126Z,71.80
2019-01-24T15:16:23.790Z,70.00
2019-01-24T15:17:23.654Z,72.10
2019-01-24T15:19:16.311Z,68.90
2019-01-24T15:20:16.192Z,73.80
2019-01-24T15:22:08.866Z,69.00
2019-01-24T15:23:08.730Z,72.90
2019-01-24T15:25:01.409Z,69.20
2019-01-24T15:26:01.271Z,74.90
2019-01-24T15:27:53.943Z,71.40
2019-01-24T15:28:53.827Z,72.30
2019-01-24T15:30:46.491Z,69.10
2019-01-24T15:31:46.357Z,71.70
2019-01-24T15:33:39.010Z,70.60
2019-01-24T15:34:38.885Z,76.10
2019-01-24T15:36:31.561Z,71.00
2019-01-24T15:37:31.430Z,69.40
2019-01-24T15:39:24.083Z,69.50
2019-01-24T15:40:23.967Z,73.30
2019-01-24T15:42:16.633Z,69.70
2019-01-24T15:43:16.507Z,69.50
2019-01-24T15:45:09.181Z,68.90
2019-01-24T15:46:09.048Z,65.90
2019-01-24T15:48:01.706Z,67.20
2019-01-24T15:49:01.595Z,67.90
2019-01-24T15:50:54.271Z,65.20
2019-01-24T15:51:54.133Z,66.40
2019-01-24T15:53:46.789Z,71.20
2019-01-24T15:54:46.672Z,68.40
2019-01-24T15:56:39.340Z,72.80
2019-01-24T15:57:39.212Z,75.00
2019-01-24T15:59:31.862Z,73.90
2019-01-24T16:00:31.746Z,66.90
2019-01-24T16:02:24.417Z,71.50
2019-01-24T16:03:24.290Z,78.90
2019-01-24T16:05:16.950Z,71.80
2019-01-24T16:06:16.839Z,67.60
2019-01-24T16:08:09.511Z,67.90
2019-01-24T16:09:09.372Z,71.50
2019-01-24T16:11:02.042Z,65.20
2019-01-24T16:12:01.919Z,67.50
2019-01-24T16:13:54.567Z,69.10
2019-01-24T16:14:54.565Z,66.70
2019-01-24T16:16:47.115Z,65.80
2019-01-24T16:17:46.978Z,67.50
2019-01-24T16:19:39.636Z,66.20
2019-01-24T16:20:39.551Z,67.00
2019-01-24T16:22:32.198Z,65.90
2019-01-24T16:23:32.067Z,70.40
2019-01-24T16:25:24.726Z,67.90
2019-01-24T16:26:24.591Z,64.60
2019-01-24T16:28:17.266Z,67.00
2019-01-24T16:29:17.127Z,62.70
2019-01-24T16:31:09.803Z,63.80
2019-01-24T16:32:09.668Z,70.80
2019-01-24T16:34:02.317Z,69.70
2019-01-24T16:35:02.209Z,71.70
2019-01-24T16:36:54.867Z,68.50
2019-01-24T16:37:54.742Z,67.60
2019-01-24T16:39:47.386Z,72.30
2019-01-24T16:40:47.270Z,68.50
2019-01-24T16:42:39.938Z,67.00
2019-01-24T16:43:39.802Z,68.00
2019-01-24T16:45:32.457Z,68.20
2019-01-24T16:46:32.456Z,66.30
2019-01-24T16:48:25.077Z,62.20
2019-01-24T16:49:24.886Z,62.90
2019-01-24T16:51:17.553Z,66.70
2019-01-24T16:52:17.436Z,66.40
2019-01-24T16:54:10.108Z,67.70
2019-01-24T16:55:09.969Z,66.80
2019-01-24T16:57:02.638Z,65.10
2019-01-24T16:58:02.505Z,66.00
2019-01-24T16:59:55.157Z,65.80
2019-01-24T17:00:55.038Z,68.20
2019-01-24T17:02:47.703Z,71.70
2019-01-24T17:03:47.565Z,69.40
2019-01-24T17:05:40.238Z,75.80
2019-01-24T17:06:40.101Z,73.80
2019-01-24T17:08:33.502Z,77.70
2019-01-24T17:09:32.640Z,75.30
2019-01-24T17:11:25.297Z,72.10
2019-01-24T17:12:25.178Z,77.10
2019-01-24T17:14:22.309Z,76.90
2019-01-24T17:15:17.713Z,74.50
2019-01-24T17:17:10.383Z,71.70
2019-01-24T17:18:10.245Z,76.10
2019-01-24T17:20:02.903Z,70.10
2019-01-24T17:21:02.781Z,71.40
2019-01-24T17:22:55.450Z,66.80
2019-01-24T17:23:55.311Z,63.50
2019-01-24T17:25:47.967Z,63.90
2019-01-24T17:26:47.850Z,61.80
2019-01-24T17:28:40.516Z,65.30
2019-01-24T17:29:40.386Z,67.00
2019-01-24T17:31:33.039Z,67.90
2019-01-24T17:32:32.942Z,60.20
2019-01-24T17:34:25.583Z,65.80
2019-01-24T17:35:25.456Z,65.80
2019-01-24T17:37:18.127Z,60.50
2019-01-24T17:38:23.704Z,66.20
2019-01-24T17:40:10.651Z,65.70
2019-01-24T17:41:10.551Z,64.40
2019-01-24T17:43:03.201Z,66.50
2019-01-24T17:44:03.073Z,63.80
2019-01-24T17:45:55.735Z,64.30
2019-01-24T17:46:55.617Z,67.30
2019-01-24T17:48:48.283Z,67.10
2019-01-24T17:49:48.146Z,70.50
2019-01-24T17:51:40.810Z,63.60
2019-01-24T17:52:40.691Z,66.00
2019-01-24T17:54:33.361Z,64.90
2019-01-24T17:55:34.153Z,65.00
2019-01-24T17:57:25.879Z,67.80
2019-01-24T17:58:25.762Z,64.60
2019-01-24T18:00:18.434Z,61.80
2019-01-24T18:01:18.361Z,68.50
2019-01-24T18:03:10.958Z,63.50
2019-01-24T18:04:10.834Z,62.20
2019-01-24T18:06:03.478Z,67.10
2019-01-24T18:07:03.362Z,63.60
2019-01-24T18:08:56.033Z,66.20
2019-01-24T18:09:55.901Z,66.10
2019-01-24T18:11:48.555Z,64.60
2019-01-24T18:12:48.438Z,65.00
2019-01-24T18:14:41.128Z,66.10
2019-01-24T18:15:40.993Z,65.00
2019-01-24T18:17:33.646Z,67.50
2019-01-24T18:18:33.531Z,66.70
2019-01-24T18:20:26.204Z,67.40
2019-01-24T18:21:26.069Z,70.00
2019-01-24T18:23:19.970Z,65.20
2019-01-24T18:24:18.599Z,66.00
2019-01-24T18:26:11.260Z,67.70
2019-01-24T18:27:11.139Z,67.50
2019-01-24T18:29:03.809Z,72.50
2019-01-24T18:30:03.677Z,76.20
2019-01-24T18:31:56.419Z,70.40
2019-01-24T18:32:56.309Z,73.00
2019-01-24T18:34:48.970Z,74.90
2019-01-24T18:35:48.840Z,68.70
2019-01-24T18:37:41.488Z,71.80
2019-01-24T18:38:41.373Z,77.00
2019-01-24T18:40:34.037Z,79.20
2019-01-24T18:41:33.900Z,80.70
2019-01-24T18:43:26.562Z,75.30
2019-01-24T18:44:26.439Z,71.30
2019-01-24T18:46:19.109Z,72.20
2019-01-24T18:47:18.972Z,72.40
2019-01-24T18:49:11.655Z,75.40
2019-01-24T18:50:11.515Z,73.10
2019-01-24T18:52:04.199Z,71.00
2019-01-24T18:53:04.096Z,72.10
2019-01-24T18:54:56.785Z,72.70
2019-01-24T18:55:56.629Z,70.50
2019-01-24T18:57:49.281Z,73.90
2019-01-24T18:58:49.162Z,72.40
2019-01-24T19:00:41.833Z,74.60
2019-01-24T19:01:41.706Z,72.40
2019-01-24T19:03:34.386Z,75.50
2019-01-24T19:04:34.259Z,74.10
2019-01-24T19:06:26.931Z,71.90
2019-01-24T19:07:26.801Z,72.00
2019-01-24T19:09:19.476Z,74.70
2019-01-24T19:10:19.338Z,76.00
2019-01-24T19:12:11.998Z,73.50
2019-01-24T19:13:11.879Z,76.80
2019-01-24T19:15:04.553Z,73.50
2019-01-24T19:16:04.426Z,74.10
2019-01-24T19:17:57.116Z,78.00
2019-01-24T19:18:56.988Z,74.40
2019-01-24T19:20:49.652Z,74.90
2019-01-24T19:21:49.523Z,77.20
2019-01-24T19:23:42.176Z,76.00
2019-01-24T19:24:42.059Z,73.20
2019-01-24T19:26:34.760Z,72.50
2019-01-24T19:27:34.635Z,71.60
2019-01-24T19:29:27.278Z,70.50
2019-01-24T19:30:27.154Z,68.90
2019-01-24T19:32:19.832Z,71.80
2019-01-24T19:33:19.702Z,71.70
2019-01-24T19:35:12.375Z,72.20
2019-01-24T19:36:12.252Z,70.60
2019-01-24T19:38:04.896Z,75.80
2019-01-24T19:39:04.778Z,68.80
2019-01-24T19:40:57.458Z,70.70
2019-01-24T19:41:57.328Z,75.10
2019-01-24T19:43:50.136Z,71.30
2019-01-24T19:44:49.871Z,72.10
2019-01-24T19:46:42.558Z,71.00
2019-01-24T19:47:42.449Z,72.70
2019-01-24T19:49:35.157Z,69.30
2019-01-24T19:50:34.973Z,69.80
2019-01-24T19:52:27.639Z,67.90
2019-01-24T19:53:27.580Z,70.50
2019-01-24T19:55:20.162Z,65.30
2019-01-24T19:56:20.075Z,71.20
2019-01-24T19:58:12.729Z,67.20
2019-01-24T19:59:12.594Z,66.10
2019-01-24T20:01:05.265Z,68.10
2019-01-24T20:02:05.132Z,70.90
2019-01-24T20:03:57.790Z,67.60
2019-01-24T20:04:57.670Z,70.50
2019-01-24T20:06:50.468Z,69.60
2019-01-24T20:07:50.403Z,67.60
2019-01-24T20:09:43.003Z,62.50
2019-01-24T20:10:42.876Z,65.40
2019-01-24T20:12:35.549Z,71.60
2019-01-24T20:13:35.423Z,67.20
2019-01-24T20:15:28.091Z,64.70
2019-01-24T20:16:28.739Z,64.20
2019-01-24T20:18:20.707Z,71.10
2019-01-24T20:19:20.574Z,69.90
2019-01-24T20:21:13.240Z,65.00
2019-01-24T20:22:13.109Z,66.40
2019-01-24T20:24:05.765Z,65.90
2019-01-24T20:25:05.639Z,64.30
2019-01-24T20:26:58.315Z,67.30
2019-01-24T20:27:58.175Z,64.20
2019-01-24T20:29:50.833Z,66.90
2019-01-24T20:30:50.717Z,66.70
2019-01-24T20:32:43.379Z,66.00
2019-01-24T20:33:43.257Z,63.30
2019-01-24T20:35:35.894Z,64.70
2019-01-24T20:36:35.773Z,60.90
2019-01-24T20:38:28.445Z,66.90
2019-01-24T20:39:28.307Z,63.20
2019-01-24T20:41:20.975Z,60.60
2019-01-24T20:42:20.850Z,62.70
2019-01-24T20:44:13.515Z,64.70
2019-01-24T20:45:13.391Z,64.80
2019-01-24T20:47:06.040Z,65.30
2019-01-24T20:48:05.939Z,63.80
2019-01-24T20:49:58.604Z,62.00
2019-01-24T20:50:58.457Z,65.00
2019-01-24T20:52:51.126Z,64.60
2019-01-24T20:53:50.987Z,65.60
2019-01-24T20:55:43.650Z,65.40
2019-01-24T20:56:43.529Z,62.90
2019-01-24T20:58:36.202Z,66.80
2019-01-24T20:59:36.092Z,65.60
2019-01-24T21:01:28.723Z,65.50
2019-01-24T21:02:28.605Z,65.40
2019-01-24T21:04:21.283Z,64.60
2019-01-24T21:05:21.135Z,64.60
2019-01-24T21:07:13.800Z,65.90
2019-01-24T21:08:13.684Z,66.50
2019-01-24T21:10:06.441Z,66.80
2019-01-24T21:11:06.316Z,67.00
2019-01-24T21:12:59.003Z,63.30
2019-01-24T21:13:58.871Z,64.70
2019-01-24T21:15:51.577Z,65.10
2019-01-24T21:16:51.419Z,63.40
2019-01-24T21:18:44.102Z,63.70
2019-01-24T21:19:43.973Z,65.70
2019-01-24T21:21:36.646Z,64.00
2019-01-24T21:22:36.525Z,66.10
2019-01-24T21:24:29.207Z,65.90
2019-01-24T21:25:29.062Z,62.90
2019-01-24T21:27:21.740Z,65.40
2019-01-24T21:28:21.614Z,65.70
2019-01-24T21:30:14.294Z,65.90
2019-01-24T21:31:14.153Z,67.40
2019-01-24T21:33:06.921Z,70.40
2019-01-24T21:34:06.688Z,65.00
2019-01-24T21:35:59.361Z,71.50
2019-01-24T21:36:59.221Z,65.00
2019-01-24T21:38:51.893Z,66.40
2019-01-24T21:39:52.064Z,65.60
2019-01-24T21:41:44.610Z,70.10
2019-01-24T21:42:44.329Z,68.90
2019-01-24T21:44:36.998Z,64.20
2019-01-24T21:45:36.856Z,64.50
2019-01-24T21:47:29.513Z,64.10
2019-01-24T21:48:29.393Z,67.00
2019-01-24T21:50:22.080Z,65.80
2019-01-24T21:51:21.936Z,69.00
2019-01-24T21:53:14.596Z,66.80
2019-01-24T21:54:14.484Z,65.10
2019-01-24T21:56:07.148Z,60.70
2019-01-24T21:57:07.009Z,61.00
2019-01-24T21:58:59.685Z,63.90
2019-01-24T21:59:59.548Z,69.10
2019-01-24T22:01:52.207Z,63.10
2019-01-24T22:02:52.086Z,63.60
2019-01-24T22:04:44.754Z,63.10
2019-01-24T22:05:44.631Z,61.20
2019-01-24T22:07:37.286Z,64.00
2019-01-24T22:08:37.158Z,64.60
2019-01-24T22:10:29.837Z,61.40
2019-01-24T22:11:29.703Z,64.10
2019-01-24T22:13:22.354Z,63.90
2019-01-24T22:14:22.234Z,64.50
2019-01-24T22:16:14.904Z,63.00
2019-01-24T22:17:14.774Z,65.50
2019-01-24T22:19:07.421Z,64.30
2019-01-24T22:20:07.311Z,64.10
2019-01-24T22:21:59.970Z,65.00
2019-01-24T22:22:59.836Z,67.20
2019-01-24T22:24:52.512Z,67.40
2019-01-24T22:25:52.370Z,69.90
2019-01-24T22:27:45.032Z,67.50
2019-01-24T22:28:44.915Z,65.40
2019-01-24T22:30:37.582Z,66.50
2019-01-24T22:31:37.451Z,66.70
2019-01-24T22:33:30.105Z,65.60
2019-01-24T22:34:31.321Z,64.40
2019-01-24T22:36:22.659Z,69.70
2019-01-24T22:37:22.517Z,69.70
2019-01-24T22:39:15.204Z,65.90
2019-01-24T22:40:15.052Z,65.10
2019-01-24T22:42:07.715Z,68.40
2019-01-24T22:43:07.586Z,63.00
2019-01-24T22:45:00.257Z,65.10
2019-01-24T22:46:00.124Z,70.00
2019-01-24T22:47:52.773Z,66.70
2019-01-24T22:48:52.654Z,63.70
2019-01-24T22:50:45.328Z,66.80
2019-01-24T22:51:45.204Z,70.30
2019-01-24T22:53:37.848Z,66.60
2019-01-24T22:54:37.727Z,65.50
2019-01-24T22:56:35.350Z,68.40
2019-01-24T22:57:30.264Z,64.00
2019-01-24T22:59:22.924Z,67.10
